Latest Weather Observations for Dum In Mirrie

IDD60801

Issued at 2:31 pm CST Thursday 21 September 2017 (issued every 30 minutes, with the page automatically refreshed every 10 minutes)

About weather observations | Map of weather stations | Latest weather observations for NT | Other Formats
Station Details ID: 014277 Name: DUM IN MIRRIE AIRSTRIP Lat: -12.63 Lon: 130.37 Height: 3.5 m
Data from the previous 72 hours. | See also: Recent months at Dum In Mirrie
Date/Time
CST
Temp
°C
App
Temp
°C
Dew
Point
°C
Rel
Hum
%
Delta-T
°C
Wind Press
QNH
hPa
Press
MSL
hPa
Rain since
9am
mm
Dir  Spd
km/h
Gust
km/h
Spd
kts
Gust
kts
21/02:30pm 30.9 34.7 24.1 67 4.7 WNW 11 20 6 11 1009.7 1009.7 0.0
21/02:00pm 31.0 34.8 24.1 66 4.8 WNW 11 20 6 11 1010.3 1010.3 0.0
21/01:30pm 30.9 35.2 24.3 68 4.6 WNW 9 20 5 11 1010.5 1010.5 0.0
21/01:00pm 31.4 35.0 25.0 69 4.5 WNW 15 22 8 12 1011.0 1011.0 0.0
21/12:30pm 31.1 35.5 25.0 70 4.3 WNW 11 17 6 9 1011.4 1011.4 0.0
21/12:00pm 30.5 34.9 25.1 73 3.8 WNW 11 19 6 10 1011.9 1011.9 0.0
21/11:30am 30.0 33.9 24.2 71 4.0 W 11 17 6 9 1012.5 1012.5 0.0
21/11:00am 29.5 33.9 24.4 74 3.6 WSW 9 13 5 7 1012.8 1012.8 0.0
21/10:30am 29.2 34.0 24.5 76 3.3 WSW 7 13 4 7 1013.0 1013.0 0.0
21/10:00am 30.3 35.2 24.7 72 3.9 WSW 7 13 4 7 1013.1 1013.1 0.0
21/09:30am 29.8 35.0 24.2 72 3.9 SSW 4 7 2 4 1013.2 1013.2 0.0
21/09:00am 29.3 34.6 24.4 75 3.4 SSE 4 6 2 3 1013.1 1013.1 0.0
21/08:30am 28.1 33.4 24.3 80 2.6 S 4 7 2 4 1012.9 1012.9 0.0
21/08:00am 27.5 33.8 25.3 88 1.5 SE 2 6 1 3 1012.8 1012.8 0.0
21/07:30am 25.8 32.2 25.5 98 0.2 ESE 2 2 1 1 1012.5 1012.5 0.0
21/07:00am 23.6 28.8 22.9 96 0.5 CALM 0 0 0 0 1012.1 1012.1 0.0
21/06:30am 23.6 28.8 22.9 96 0.5 CALM 0 0 0 0 1011.7 1011.7 0.0
21/06:00am 23.9 29.3 23.2 96 0.5 CALM 0 0 0 0 1011.4 1011.4 0.0
21/05:30am 23.8 29.1 23.0 95 0.5 CALM 0 0 0 0 1011.2 1011.2 0.0
21/05:00am 24.1 28.8 23.4 96 0.5 ESE 4 4 2 2 1011.1 1011.1 0.0
21/04:30am 23.8 29.1 23.0 95 0.5 CALM 0 0 0 0 1010.9 1010.9 0.0
21/04:00am 23.9 29.2 23.0 95 0.6 CALM 0 0 0 0 1010.8 1010.8 0.0
21/03:30am 23.9 29.1 22.9 94 0.7 CALM 0 0 0 0 1010.6 1010.6 0.0
21/03:00am 23.9 28.9 22.5 92 0.9 CALM 0 0 0 0 1010.5 1010.5 0.0
21/02:30am 24.2 29.4 22.8 92 0.9 CALM 0 0 0 0 1010.8 1010.8 0.0
21/02:00am 24.4 29.5 22.7 90 1.1 CALM 0 0 0 0 1011.0 1011.0 0.0
21/01:30am 25.2 30.4 22.9 87 1.6 CALM 0 0 0 0 1011.2 1011.2 0.0
21/01:00am 26.3 32.1 24.0 87 1.6 CALM 0 0 0 0 1011.3 1011.3 0.0
21/12:30am 26.7 32.7 24.2 86 1.7 CALM 0 6 0 3 1011.5 1011.5 0.0
21/12:00am 27.0 32.3 24.3 85 1.9 W 4 11 2 6 1011.6 1011.6 0.0
 
Date/Time
CST
Temp
°C
App
Temp
°C
Dew
Point
°C
Rel
Hum
%
Delta-T
°C
Wind Press
QNH
hPa
Press
MSL
hPa
Rain since
9am
mm
Dir  Spd
km/h
Gust
km/h
Spd
kts
Gust
kts
20/11:30pm 27.1 32.2 24.6 86 1.7 WSW 6 13 3 7 1011.6 1011.6 0.0
20/11:00pm 27.3 31.9 24.2 83 2.1 WSW 7 15 4 8 1011.8 1011.8 0.0
20/10:30pm 27.4 31.3 24.3 83 2.1 SSW 11 17 6 9 1011.5 1011.5 0.0
20/10:00pm 27.4 31.3 24.3 83 2.1 SW 11 19 6 10 1011.5 1011.5 0.0
20/09:30pm 27.5 32.3 24.4 83 2.2 SW 7 13 4 7 1011.4 1011.4 0.0
20/09:00pm 27.5 32.8 24.4 83 2.2 WSW 4 11 2 6 1011.2 1011.2 0.0
20/08:30pm 27.6 32.4 24.2 82 2.4 SW 6 9 3 5 1011.1 1011.1 0.0
20/08:00pm 27.7 32.6 24.3 82 2.4 SW 6 11 3 6 1010.9 1010.9 0.0
20/07:30pm 27.9 32.8 24.3 81 2.5 WSW 6 11 3 6 1010.4 1010.4 0.0
20/07:00pm 28.1 31.9 23.5 76 3.2 WSW 9 17 5 9 1010.3 1010.3 0.0
20/06:30pm 28.5 32.4 23.0 72 3.8 W 7 11 4 6 1010.0 1010.0 0.0
20/06:00pm 28.8 32.4 23.0 71 4.0 W 9 15 5 8 1009.9 1009.9 0.0
20/05:30pm 29.1 32.6 23.5 72 3.9 W 11 19 6 10 1009.6 1009.6 0.0
20/05:00pm 29.9 33.8 23.6 69 4.3 W 9 17 5 9 1009.6 1009.6 0.0
20/04:30pm 30.1 33.9 24.0 70 4.2 W 11 19 6 10 1009.6 1009.6 0.0
20/04:00pm 30.5 34.6 23.9 68 4.6 W 9 19 5 10 1009.8 1009.8 0.0
20/03:30pm 30.4 34.3 23.6 67 4.7 W 9 17 5 9 1010.0 1010.0 0.0
20/03:00pm 30.7 34.4 23.9 67 4.7 W 11 19 6 10 1010.2 1010.2 0.0
20/02:30pm 31.1 34.3 23.7 64 5.1 W 13 22 7 12 1010.5 1010.5 0.0
20/02:00pm 31.2 34.5 23.8 64 5.1 W 13 20 7 11 1010.7 1010.7 0.0
20/01:30pm 31.9 35.5 23.7 62 5.7 W 11 20 6 11 1011.1 1011.1 0.0
20/01:00pm 31.7 35.2 23.5 62 5.7 W 11 22 6 12 1011.5 1011.5 0.0
20/12:30pm 31.1 34.4 23.2 63 5.4 W 11 17 6 9 1011.8 1011.8 0.0
20/12:00pm 30.5 33.8 23.2 65 5.0 W 11 17 6 9 1012.3 1012.3 0.0
20/11:30am 30.4 34.4 23.1 65 5.0 WSW 7 15 4 8 1012.8 1012.8 0.0
20/11:00am 29.7 33.4 23.2 68 4.5 WSW 9 13 5 7 1013.2 1013.2 0.0
20/10:30am 29.8 33.5 23.3 68 4.5 SW 9 15 5 8 1013.6 1013.6 0.0
20/10:00am 29.7 33.6 22.9 67 4.6 SW 7 13 4 7 1013.7 1013.7 0.0
20/09:30am 29.2 33.5 23.6 72 3.9 SW 7 11 4 6 1013.8 1013.8 0.0
20/09:00am 28.8 32.9 23.0 71 4.0 SW 6 9 3 5 1013.6 1013.6 0.0
20/08:30am 28.1 33.0 23.7 77 3.0 S 4 7 2 4 1013.5 1013.5 0.0
20/08:00am 27.5 32.9 23.9 81 2.5 S 2 4 1 2 1013.2 1013.2 0.0
20/07:30am 25.1 31.0 24.1 94 0.7 CALM 0 0 0 0 1013.0 1013.0 0.0
20/07:00am 23.0 27.6 21.8 93 0.8 CALM 0 0 0 0 1012.6 1012.6 0.0
20/06:30am 22.8 27.3 21.6 93 0.8 CALM 0 0 0 0 1012.5 1012.5 0.0
20/06:00am 22.9 27.5 21.7 93 0.8 CALM 0 0 0 0 1012.3 1012.3 0.0
20/05:30am 22.9 27.3 21.4 91 1.0 CALM 0 0 0 0 1011.9 1011.9 0.0
20/05:00am 23.2 27.7 21.6 91 1.1 CALM 0 0 0 0 1011.8 1011.8 0.0
20/04:30am 23.4 28.0 21.7 90 1.1 CALM 0 0 0 0 1011.7 1011.7 0.0
20/04:00am 23.7 28.1 21.4 87 1.5 CALM 0 0 0 0 1011.7 1011.7 0.0
20/03:30am 24.3 28.9 21.8 86 1.7 CALM 0 4 0 2 1011.9 1011.9 0.0
20/03:00am 25.0 29.7 21.9 83 2.1 CALM 0 0 0 0 1012.1 1012.1 0.0
20/02:30am 25.8 30.4 22.5 82 2.2 N 2 7 1 4 1012.2 1012.2 0.0
20/02:00am 25.7 29.8 23.0 85 1.8 NNW 6 9 3 5 1012.1 1012.1 0.0
20/01:30am 24.2 28.5 21.9 87 1.5 N 2 4 1 2 1012.3 1012.3 0.0
20/01:00am 24.2 28.5 21.9 87 1.5 NNW 2 4 1 2 1012.4 1012.4 0.0
20/12:30am 24.0 28.2 21.7 87 1.5 N 2 4 1 2 1012.7 1012.7 0.0
20/12:00am 24.5 29.1 21.8 85 1.8 CALM 0 0 0 0 1012.9 1012.9 0.0
 
Date/Time
CST
Temp
°C
App
Temp
°C
Dew
Point
°C
Rel
Hum
%
Delta-T
°C
Wind Press
QNH
hPa
Press
MSL
hPa
Rain since
9am
mm
Dir  Spd
km/h
Gust
km/h
Spd
kts
Gust
kts
19/11:30pm 25.0 29.5 21.5 81 2.3 CALM 0 0 0 0 1013.0 1013.0 0.0
19/11:00pm 26.3 31.4 22.6 80 2.5 CALM 0 0 0 0 1013.1 1013.1 0.0
19/10:30pm 27.0 31.9 23.0 79 2.7 WSW 2 6 1 3 1013.1 1013.1 0.0
19/10:00pm 27.3 32.2 23.1 78 2.9 SW 2 6 1 3 1012.7 1012.7 0.0
19/09:30pm 27.4 32.2 22.8 76 3.1 SW 2 6 1 3 1012.3 1012.3 0.0
19/09:00pm 27.6 31.3 22.5 74 3.5 SW 7 9 4 5 1011.8 1011.8 0.0
19/08:30pm 27.6 32.5 23.0 76 3.1 SW 2 7 1 4 1011.7 1011.7 0.0
19/08:00pm 27.8 31.7 22.5 73 3.6 WSW 6 11 3 6 1011.4 1011.4 0.0
19/07:30pm 27.8 31.6 22.7 74 3.5 W 7 13 4 7 1011.3 1011.3 0.0
19/07:00pm 27.8 31.5 22.3 72 3.7 W 6 11 3 6 1011.2 1011.2 0.0
19/06:30pm 28.1 31.7 22.3 70 3.9 W 7 15 4 8 1010.8 1010.8 0.0
19/06:00pm 28.6 31.4 21.6 66 4.7 W 9 15 5 8 1010.6 1010.6 0.0
19/05:30pm 29.7 32.9 22.4 65 5.0 W 9 15 5 8 1010.5 1010.5 0.0
19/05:00pm 30.0 32.9 21.7 61 5.6 WNW 9 17 5 9 1010.3 1010.3 0.0
19/04:30pm 30.2 32.6 21.6 60 5.8 W 11 17 6 9 1010.2 1010.2 0.0
19/04:00pm 30.3 33.0 21.4 59 6.0 WNW 9 19 5 10 1010.4 1010.4 0.0
19/03:30pm 30.9 33.4 21.7 58 6.2 W 11 19 6 10 1010.5 1010.5 0.0
19/03:00pm 31.0 33.2 21.8 58 6.2 W 13 20 7 11 1010.7 1010.7 0.0
19/02:30pm 31.0 33.4 21.5 57 6.4 WNW 11 20 6 11 1011.0 1011.0 0.0
19/02:00pm 31.1 33.5 21.6 57 6.4 WNW 11 17 6 9 1011.3 1011.3 0.0
19/01:30pm 30.5 32.2 21.0 57 6.3 W 13 20 7 11 1011.8 1011.8 0.0
19/01:00pm 30.6 32.4 21.1 57 6.4 W 13 20 7 11 1012.1 1012.1 0.0
19/12:30pm 30.8 33.1 21.3 57 6.4 W 11 19 6 10 1012.7 1012.7 0.0
19/12:00pm 30.1 32.9 21.5 60 5.8 W 9 17 5 9 1013.3 1013.3 0.0
19/11:30am 28.7 31.7 22.0 67 4.5 W 9 15 5 8 1013.8 1013.8 0.0
19/11:00am 29.4 32.9 22.1 65 4.9 W 7 11 4 6 1014.2 1014.2 0.0
19/10:30am 28.3 32.4 23.2 74 3.5 WSW 7 9 4 5 1014.5 1014.5 0.0
19/10:00am 28.4 33.2 23.5 75 3.4 WSW 4 7 2 4 1014.8 1014.8 0.0
19/09:30am 28.6 33.3 23.9 75 3.2 WSW 6 9 3 5 1014.6 1014.6 0.0
19/09:00am 27.9 32.8 23.7 78 2.9 W 4 6 2 3 1014.6 1014.6 0.0
19/08:30am 27.6 32.8 24.2 82 2.4 WSW 4 6 2 3 1014.2 1014.2 0.0
19/08:00am 26.2 32.1 24.1 88 1.4 CALM 0 0 0 0 1013.9 1013.9 0.0
19/07:30am 23.8 29.1 23.1 96 0.5 CALM 0 0 0 0 1014.0 1014.0 0.0
19/07:00am 22.8 27.5 22.0 95 0.5 CALM 0 0 0 0 1013.8 1013.8 0.0
19/06:30am 23.4 28.5 22.6 95 0.5 CALM 0 2 0 1 1013.6 1013.6 0.0
19/06:00am 24.1 29.6 23.4 96 0.5 CALM 0 2 0 1 1013.3 1013.3 0.0
19/05:30am 24.4 29.8 23.9 97 0.3 ESE 2 4 1 2 1013.1 1013.1 0.0
19/05:00am 24.1 29.1 23.8 98 0.2 ENE 4 9 2 5 1013.0 1013.0 0.0
19/04:30am 22.5 27.1 21.7 95 0.5 CALM 0 0 0 0 1012.4 1012.4 0.0
19/04:00am 22.6 27.2 21.8 95 0.5 CALM 0 0 0 0 1012.3 1012.3 0.0
19/03:30am 22.7 27.3 21.7 94 0.7 CALM 0 0 0 0 1012.3 1012.3 0.0
19/03:00am 22.8 27.4 21.8 94 0.7 CALM 0 0 0 0 1012.3 1012.3 0.0
19/02:30am 22.7 27.1 21.3 92 0.9 CALM 0 0 0 0 1012.7 1012.7 0.0
19/02:00am 22.7 26.8 20.8 89 1.2 CALM 0 0 0 0 1013.0 1013.0 0.0
19/01:30am 23.3 27.4 20.8 86 1.6 CALM 0 0 0 0 1013.6 1013.6 0.0
19/01:00am 24.9 30.0 22.6 87 1.5 CALM 0 4 0 2 1013.8 1013.8 0.0
19/12:30am 24.9 29.5 22.4 86 1.7 SW 2 4 1 2 1014.2 1014.2 0.0
19/12:00am 25.4 29.9 22.3 83 2.1 NW 2 4 1 2 1014.6 1014.6 0.0
 
Date/Time
CST
Temp
°C
App
Temp
°C
Dew
Point
°C
Rel
Hum
%
Delta-T
°C
Wind Press
QNH
hPa
Press
MSL
hPa
Rain since
9am
mm
Dir  Spd
km/h
Gust
km/h
Spd
kts
Gust
kts
18/11:30pm 26.1 31.0 23.0 83 2.1 WSW 2 4 1 2 1014.3 1014.3 0.0
18/11:00pm 26.4 31.3 23.1 82 2.2 WSW 2 6 1 3 1014.3 1014.3 0.0
18/10:30pm 26.2 30.7 22.9 82 2.2 WSW 4 9 2 5 1014.4 1014.4 0.0
18/10:00pm 26.5 31.4 23.0 81 2.4 W 2 6 1 3 1014.3 1014.3 0.0
18/09:30pm 26.7 31.1 22.8 79 2.6 WNW 4 9 2 5 1014.2 1014.2 0.0
18/09:00pm 26.9 31.4 22.9 79 2.7 WNW 4 9 2 5 1013.6 1013.6 0.0
18/08:30pm 27.0 31.0 22.8 78 2.8 WNW 6 11 3 6 1013.4 1013.4 0.0
18/08:00pm 27.1 31.2 22.9 78 2.9 W 6 13 3 7 1013.0 1013.0 0.0
18/07:30pm 27.3 31.2 22.9 77 3.0 WNW 7 13 4 7 1012.6 1012.6 0.0
18/07:00pm 27.4 31.5 23.0 77 3.0 W 6 13 3 7 1012.1 1012.1 0.0
18/06:30pm 27.8 31.5 22.5 73 3.6 W 7 15 4 8 1011.6 1011.6 0.0
18/06:00pm 28.7 32.3 23.1 71 3.8 W 9 19 5 10 1011.1 1011.1 0.0
18/05:30pm 29.2 32.6 22.7 68 4.4 W 9 17 5 9 1011.1 1011.1 0.0
18/05:00pm 29.8 33.3 22.8 66 4.8 W 9 19 5 10 1010.9 1010.9 0.0
18/04:30pm 30.1 33.1 23.3 67 4.7 W 13 22 7 12 1011.0 1011.0 0.0
18/04:00pm 29.9 32.8 23.1 67 4.7 W 13 24 7 13 1011.1 1011.1 0.0
18/03:30pm 29.4 31.0 22.9 68 4.4 W 19 26 10 14 1011.4 1011.4 0.0
18/03:00pm 30.1 32.7 23.3 67 4.7 W 15 22 8 12 1011.9 1011.9 0.0

Other Formats:

Comma delimited format used in spreadsheet applications
http://www.bom.gov.au/fwo/IDD60801/IDD60801.94116.axf

JavaScript Object Notation format (JSON) in row-major order
http://www.bom.gov.au/fwo/IDD60801/IDD60801.94116.json